createdAt,value
2022-09-12T00:01:21.533Z,76.51
2022-09-12T00:03:56.100Z,76.74
2022-09-12T00:06:32.695Z,77.54
2022-09-12T00:09:10.317Z,78.14
2022-09-12T00:11:40.328Z,77.71
2022-09-12T00:14:09.473Z,77.15
2022-09-12T00:16:37.820Z,76.70
2022-09-12T00:19:06.228Z,77.20
2022-09-12T00:21:35.222Z,76.62
2022-09-12T00:24:03.295Z,76.62
2022-09-12T00:26:31.363Z,76.69
2022-09-12T00:28:59.122Z,76.72
2022-09-12T00:31:27.381Z,75.80
2022-09-12T00:33:57.528Z,75.31
2022-09-12T00:36:25.698Z,75.73
2022-09-12T00:38:54.799Z,75.44
2022-09-12T00:41:37.709Z,75.51
2022-09-12T00:44:23.985Z,76.48
2022-09-12T00:47:06.204Z,76.18
2022-09-12T00:49:49.129Z,77.16
2022-09-12T00:52:31.120Z,76.29
2022-09-12T00:55:09.737Z,76.14
2022-09-12T00:57:52.762Z,76.16
2022-09-12T01:00:23.045Z,75.98
2022-09-12T01:02:54.667Z,75.74
2022-09-12T01:05:23.625Z,75.51
2022-09-12T01:07:52.105Z,75.88
2022-09-12T01:10:20.790Z,75.72
2022-09-12T01:12:48.864Z,76.24
2022-09-12T01:15:16.728Z,76.84
2022-09-12T01:18:16.642Z,76.76
2022-09-12T01:21:20.555Z,77.46
2022-09-12T01:24:09.308Z,77.85
2022-09-12T01:27:19.364Z,76.87
2022-09-12T01:30:27.379Z,77.77
2022-09-12T01:33:21.761Z,77.43
2022-09-12T01:36:04.783Z,77.85
2022-09-12T01:38:59.576Z,78.03
2022-09-12T01:41:56.215Z,78.54
2022-09-12T01:44:30.954Z,77.93
2022-09-12T01:47:29.938Z,77.23
2022-09-12T01:50:07.045Z,77.39
2022-09-12T01:53:01.384Z,77.64
2022-09-12T01:55:46.680Z,77.31
2022-09-12T01:58:43.728Z,78.48
2022-09-12T02:01:23.244Z,78.37
2022-09-12T02:04:01.476Z,78.72
2022-09-12T02:06:40.503Z,77.67
2022-09-12T02:09:23.627Z,77.51
2022-09-12T02:11:54.092Z,77.23
2022-09-12T02:14:25.027Z,76.97
2022-09-12T02:17:15.017Z,77.23
2022-09-12T02:19:51.452Z,76.87
2022-09-12T02:22:21.172Z,76.66
2022-09-12T02:24:52.451Z,77.36
2022-09-12T02:27:40.610Z,78.19
2022-09-12T02:30:09.631Z,78.17
2022-09-12T02:33:07.371Z,78.22
2022-09-12T02:35:48.063Z,77.98
2022-09-12T02:38:36.978Z,76.86
2022-09-12T02:41:04.823Z,76.62
2022-09-12T02:43:32.586Z,77.09
2022-09-12T02:46:00.634Z,78.21
2022-09-12T02:48:31.808Z,78.41
2022-09-12T02:50:59.633Z,78.16
2022-09-12T02:53:27.397Z,78.52
2022-09-12T02:55:55.360Z,78.54
2022-09-12T02:58:27.046Z,78.42
2022-09-12T03:01:08.020Z,78.26
2022-09-12T03:03:44.295Z,78.69
2022-09-12T03:06:21.921Z,78.70
2022-09-12T03:09:18.217Z,78.93
2022-09-12T03:12:34.138Z,78.79
2022-09-12T03:15:18.112Z,79.03
2022-09-12T03:18:07.997Z,79.39
2022-09-12T03:20:53.922Z,78.92
2022-09-12T03:23:39.260Z,78.40
2022-09-12T03:26:17.261Z,78.61
2022-09-12T03:28:45.532Z,77.89
2022-09-12T03:31:18.215Z,77.50
2022-09-12T03:33:46.284Z,77.57
2022-09-12T03:36:21.543Z,78.29
2022-09-12T03:38:49.427Z,78.74
2022-09-12T03:41:17.153Z,79.14
2022-09-12T03:43:45.728Z,79.28
2022-09-12T03:46:13.908Z,79.34
2022-09-12T03:48:41.988Z,78.44
2022-09-12T03:51:10.468Z,78.36
2022-09-12T03:53:38.426Z,78.95
2022-09-12T03:56:08.623Z,79.05
2022-09-12T03:58:37.067Z,79.62
2022-09-12T04:01:16.309Z,79.09
2022-09-12T04:03:46.282Z,79.61
2022-09-12T04:06:15.777Z,79.01
2022-09-12T04:08:44.210Z,78.93
2022-09-12T04:11:13.933Z,78.91
2022-09-12T04:13:43.369Z,78.64
2022-09-12T04:16:12.012Z,78.47
2022-09-12T04:18:40.225Z,78.55
2022-09-12T04:21:11.785Z,78.07
2022-09-12T04:23:39.543Z,77.43
2022-09-12T04:26:08.348Z,77.49
2022-09-12T04:28:37.730Z,77.71
2022-09-12T04:31:12.762Z,77.67
2022-09-12T04:33:40.473Z,78.08
2022-09-12T04:36:16.867Z,78.06
2022-09-12T04:38:46.389Z,77.95
2022-09-12T04:41:19.427Z,78.95
2022-09-12T04:43:47.900Z,79.13
2022-09-12T04:46:17.473Z,78.57
2022-09-12T04:48:45.230Z,78.47
2022-09-12T04:51:16.282Z,78.36
2022-09-12T04:53:47.311Z,78.45
2022-09-12T04:56:15.103Z,78.68
2022-09-12T04:58:42.891Z,78.30
2022-09-12T05:01:16.106Z,77.92
2022-09-12T05:03:45.593Z,78.07
2022-09-12T05:06:16.077Z,78.54
2022-09-12T05:08:44.107Z,78.27
2022-09-12T05:11:14.831Z,78.26
2022-09-12T05:13:43.051Z,78.63
2022-09-12T05:16:13.346Z,78.91
2022-09-12T05:18:41.511Z,78.20
2022-09-12T05:21:11.550Z,78.81
2022-09-12T05:23:39.452Z,79.30
2022-09-12T05:26:07.997Z,78.51
2022-09-12T05:28:37.793Z,78.07
2022-09-12T05:31:19.351Z,77.74
2022-09-12T05:33:49.201Z,78.16
2022-09-12T05:36:19.659Z,78.47
2022-09-12T05:38:47.549Z,78.87
2022-09-12T05:41:24.876Z,78.28
2022-09-12T05:43:58.276Z,78.28
2022-09-12T05:46:28.604Z,78.72
2022-09-12T05:48:57.295Z,78.86
2022-09-12T05:51:28.238Z,78.87
2022-09-12T05:53:58.056Z,79.32
2022-09-12T05:56:28.154Z,78.93
2022-09-12T05:58:59.395Z,79.50
2022-09-12T06:01:28.347Z,78.88
2022-09-12T06:04:02.304Z,78.46
2022-09-12T06:06:31.573Z,78.31
2022-09-12T06:09:01.537Z,78.40
2022-09-12T06:11:32.245Z,77.99
2022-09-12T06:14:00.420Z,77.97
2022-09-12T06:16:30.576Z,78.32
2022-09-12T06:19:04.859Z,78.29
2022-09-12T06:21:34.676Z,78.15
2022-09-12T06:24:02.842Z,77.88
2022-09-12T06:26:30.912Z,77.94
2022-09-12T06:29:00.691Z,78.49
2022-09-12T06:31:34.067Z,78.04
2022-09-12T06:34:06.925Z,78.13
2022-09-12T06:36:37.836Z,78.84
2022-09-12T06:39:17.816Z,78.96
2022-09-12T06:41:45.823Z,79.14
2022-09-12T06:44:21.196Z,79.54
2022-09-12T06:46:49.173Z,79.48
2022-09-12T06:49:17.823Z,79.01
2022-09-12T06:51:45.782Z,79.13
2022-09-12T06:54:14.692Z,78.76
2022-09-12T06:56:42.880Z,78.07
2022-09-12T06:59:10.649Z,78.04
2022-09-12T07:01:38.621Z,77.88
2022-09-12T07:04:06.511Z,77.61
2022-09-12T07:06:41.922Z,77.53
2022-09-12T07:09:13.418Z,77.87
2022-09-12T07:11:41.961Z,78.14
2022-09-12T07:14:12.193Z,77.97
2022-09-12T07:16:40.203Z,77.82
2022-09-12T07:19:08.826Z,77.63
2022-09-12T07:21:40.214Z,78.02
2022-09-12T07:24:10.393Z,77.97
2022-09-12T07:26:40.678Z,78.73
2022-09-12T07:32:02.562Z,78.86
2022-09-12T07:34:30.427Z,78.72
2022-09-12T07:36:58.904Z,78.44
2022-09-12T07:39:26.680Z,78.13
2022-09-12T07:41:55.050Z,78.27
2022-09-12T07:44:23.116Z,79.32
2022-09-12T07:46:51.086Z,79.19
2022-09-12T07:49:18.949Z,79.45
2022-09-12T07:51:46.694Z,79.15
2022-09-12T07:54:14.887Z,78.59
2022-09-12T07:56:42.610Z,78.24
2022-09-12T07:59:10.413Z,79.06
2022-09-12T08:01:40.001Z,78.83
2022-09-12T08:04:08.396Z,78.94
2022-09-12T08:06:37.185Z,78.91
2022-09-12T08:09:05.769Z,78.65
2022-09-12T08:11:33.940Z,79.17
2022-09-12T08:14:03.190Z,78.85
2022-09-12T08:16:32.029Z,78.21
2022-09-12T08:19:02.041Z,77.96
2022-09-12T08:21:31.598Z,77.98
2022-09-12T08:24:02.335Z,78.22
2022-09-12T08:26:31.888Z,78.60
2022-09-12T08:28:59.853Z,78.32
2022-09-12T08:31:28.231Z,78.24
2022-09-12T08:33:56.816Z,78.36
2022-09-12T08:36:27.354Z,78.28
2022-09-12T08:38:59.920Z,78.17
2022-09-12T08:41:48.672Z,78.42
2022-09-12T08:45:01.397Z,78.11
2022-09-12T08:47:33.629Z,77.79
2022-09-12T08:50:11.068Z,77.43
2022-09-12T08:53:05.024Z,77.14
2022-09-12T08:55:51.476Z,77.15
2022-09-12T08:58:22.646Z,77.17
2022-09-12T09:01:32.273Z,77.55
2022-09-12T09:04:29.535Z,77.62
2022-09-12T09:07:08.208Z,77.54
2022-09-12T09:09:52.841Z,77.91
2022-09-12T09:12:26.910Z,77.73
2022-09-12T09:15:12.332Z,77.98
2022-09-12T09:17:50.228Z,77.85
2022-09-12T09:20:43.819Z,78.02
2022-09-12T09:23:31.938Z,78.02
2022-09-12T09:26:26.602Z,77.46
2022-09-12T09:29:02.692Z,76.91
2022-09-12T09:31:38.279Z,77.25
2022-09-12T09:34:25.155Z,77.51
2022-09-12T09:37:09.261Z,77.28
2022-09-12T09:39:56.190Z,77.03
2022-09-12T09:43:02.070Z,77.19
2022-09-12T09:45:29.940Z,77.22
2022-09-12T09:48:04.454Z,77.18
2022-09-12T09:50:32.221Z,77.20
2022-09-12T09:53:00.496Z,76.93
2022-09-12T09:55:32.777Z,76.90
2022-09-12T09:58:00.628Z,76.66
2022-09-12T10:00:33.169Z,76.90
2022-09-12T10:03:21.758Z,77.12
2022-09-12T10:05:54.126Z,76.72
2022-09-12T10:08:27.712Z,76.03
2022-09-12T10:11:02.036Z,75.62
2022-09-12T10:13:38.030Z,75.83
2022-09-12T10:16:18.956Z,75.74
2022-09-12T10:18:46.928Z,75.56
2022-09-12T10:21:30.445Z,75.42
2022-09-12T10:24:26.179Z,74.94
2022-09-12T10:26:58.868Z,74.85
2022-09-12T10:29:28.822Z,75.48
2022-09-12T10:31:59.765Z,75.55
2022-09-12T10:34:38.353Z,75.60
2022-09-12T10:37:28.202Z,75.21
2022-09-12T10:39:57.416Z,74.82
2022-09-12T10:42:56.867Z,74.26
2022-09-12T10:45:32.850Z,74.45
2022-09-12T10:48:07.330Z,74.44
2022-09-12T10:50:41.515Z,74.45
2022-09-12T10:53:41.389Z,74.55
2022-09-12T10:56:14.930Z,74.74
2022-09-12T10:58:57.831Z,74.35
2022-09-12T11:01:32.232Z,74.01
2022-09-12T11:04:42.088Z,73.61
2022-09-12T11:07:24.414Z,73.55
2022-09-12T11:10:36.747Z,74.02
2022-09-12T11:13:37.641Z,74.19
2022-09-12T11:16:23.155Z,74.52
2022-09-12T11:19:30.334Z,74.63
2022-09-12T11:22:36.537Z,74.04
2022-09-12T11:25:31.417Z,74.18
2022-09-12T11:28:31.298Z,74.24
2022-09-12T11:31:18.712Z,74.08
2022-09-12T11:33:50.175Z,73.88
2022-09-12T11:36:42.462Z,73.23
2022-09-12T11:39:37.375Z,72.72
2022-09-12T11:42:05.723Z,72.97
2022-09-12T11:44:51.502Z,73.14
2022-09-12T11:47:21.009Z,72.99
2022-09-12T11:49:52.205Z,72.85
2022-09-12T11:52:24.170Z,73.05
2022-09-12T11:54:58.553Z,73.45
2022-09-12T11:57:55.168Z,73.75
2022-09-12T12:00:33.372Z,74.23
2022-09-12T12:03:06.517Z,74.31
2022-09-12T12:06:01.424Z,74.24
2022-09-12T12:08:30.135Z,74.43
2022-09-12T12:11:02.885Z,74.38
2022-09-12T12:13:44.779Z,74.61
2022-09-12T12:16:16.389Z,74.42
2022-09-12T12:18:44.206Z,75.06
2022-09-12T12:21:44.051Z,75.17
2022-09-12T12:24:15.478Z,74.94
2022-09-12T12:27:03.536Z,74.53
2022-09-12T12:29:41.500Z,74.63
2022-09-12T12:32:10.835Z,73.99
2022-09-12T12:34:40.237Z,73.18
2022-09-12T12:37:21.155Z,72.63
2022-09-12T12:39:52.706Z,72.93
2022-09-12T12:42:33.328Z,72.66
2022-09-12T12:45:10.407Z,72.30
2022-09-12T12:47:38.274Z,72.15
2022-09-12T12:50:23.960Z,72.06
2022-09-12T12:53:00.610Z,72.18
2022-09-12T12:55:41.209Z,72.14
2022-09-12T12:58:31.845Z,71.84
2022-09-12T13:01:14.578Z,71.92
2022-09-12T13:04:04.321Z,71.88
2022-09-12T13:06:37.723Z,71.54
2022-09-12T13:09:09.261Z,71.40
2022-09-12T13:11:38.836Z,71.08
2022-09-12T13:14:28.394Z,71.53
2022-09-12T13:16:59.550Z,72.47
2022-09-12T13:19:32.679Z,72.48
2022-09-12T13:22:01.866Z,72.85
2022-09-12T13:24:29.846Z,72.61
2022-09-12T13:26:58.080Z,72.71
2022-09-12T13:29:27.591Z,72.82
2022-09-12T13:31:58.467Z,72.75
2022-09-12T13:34:37.914Z,71.96
2022-09-12T13:37:49.719Z,71.84
2022-09-12T13:40:53.664Z,71.82
2022-09-12T13:43:29.529Z,72.55
2022-09-12T13:45:57.442Z,73.02
2022-09-12T13:48:25.400Z,72.49
2022-09-12T13:51:00.435Z,72.61
2022-09-12T13:53:40.685Z,72.03
2022-09-12T13:56:08.506Z,72.04
2022-09-12T13:58:36.421Z,72.07
2022-09-12T14:01:10.593Z,72.15
2022-09-12T14:04:06.918Z,71.86
2022-09-12T14:06:51.946Z,71.54
2022-09-12T14:09:35.088Z,71.32
2022-09-12T14:12:03.590Z,71.27
2022-09-12T14:14:36.625Z,71.85
2022-09-12T14:17:40.309Z,71.29
2022-09-12T14:20:18.696Z,71.95
2022-09-12T14:22:50.544Z,71.85
2022-09-12T14:25:22.047Z,72.07
2022-09-12T14:27:54.896Z,71.76
2022-09-12T14:30:32.617Z,72.13
2022-09-12T14:33:12.746Z,71.59
2022-09-12T14:35:51.256Z,71.58
2022-09-12T14:38:25.007Z,72.79
2022-09-12T14:41:00.879Z,72.37
2022-09-12T14:43:36.763Z,72.21
2022-09-12T14:46:15.954Z,72.01
2022-09-12T14:48:48.768Z,71.31
2022-09-12T14:51:20.322Z,71.83
2022-09-12T14:53:49.251Z,71.43
2022-09-12T14:56:17.189Z,71.29
2022-09-12T14:58:44.975Z,71.29
2022-09-12T15:01:12.690Z,71.26
2022-09-12T15:03:49.335Z,71.50
2022-09-12T15:06:45.311Z,71.34
2022-09-12T15:09:13.481Z,71.89
2022-09-12T15:11:41.346Z,71.63
2022-09-12T15:14:13.428Z,71.24
2022-09-12T15:16:41.534Z,71.33
2022-09-12T15:19:09.826Z,71.40
2022-09-12T15:21:37.604Z,71.55
2022-09-12T15:24:05.691Z,71.24
2022-09-12T15:26:33.456Z,71.36
2022-09-12T15:29:01.731Z,70.96
2022-09-12T15:31:31.362Z,71.20
2022-09-12T15:34:01.055Z,71.39
2022-09-12T15:36:29.174Z,71.43
2022-09-12T15:38:57.392Z,71.58
2022-09-12T15:41:37.105Z,71.79
2022-09-12T15:44:10.602Z,71.82
2022-09-12T15:46:38.742Z,72.31
2022-09-12T15:49:07.358Z,73.01
2022-09-12T15:51:35.255Z,72.84
2022-09-12T15:54:04.451Z,72.06
2022-09-12T15:56:32.521Z,72.53
2022-09-12T15:59:00.527Z,72.53
2022-09-12T16:01:29.285Z,72.35
2022-09-12T16:03:57.862Z,72.08
2022-09-12T16:06:27.467Z,71.91
2022-09-12T16:08:55.434Z,71.93
2022-09-12T16:11:26.099Z,72.35
2022-09-12T16:13:54.774Z,72.28
2022-09-12T16:16:22.768Z,72.32
2022-09-12T16:18:50.790Z,72.57
2022-09-12T16:21:18.707Z,72.65
2022-09-12T16:23:48.678Z,72.48
2022-09-12T16:26:16.577Z,72.42
2022-09-12T16:28:44.882Z,72.36
2022-09-12T16:31:13.937Z,72.72
2022-09-12T16:33:44.205Z,73.03
2022-09-12T16:36:14.559Z,73.53
2022-09-12T16:38:49.821Z,73.15
2022-09-12T16:41:20.349Z,73.34
2022-09-12T16:43:48.495Z,73.29
2022-09-12T16:46:19.185Z,73.66
2022-09-12T16:48:52.120Z,74.34
2022-09-12T16:51:24.309Z,73.97
2022-09-12T16:53:52.445Z,73.78
2022-09-12T16:56:20.372Z,73.24
2022-09-12T16:58:48.296Z,72.66
2022-09-12T17:01:19.053Z,72.16
2022-09-12T17:03:47.323Z,71.60
2022-09-12T17:06:18.286Z,72.40
2022-09-12T17:08:49.385Z,72.92
2022-09-12T17:11:23.153Z,72.16
2022-09-12T17:14:04.401Z,71.54
2022-09-12T17:16:36.729Z,71.54
2022-09-12T17:19:05.921Z,71.56
2022-09-12T17:21:34.097Z,71.63
2022-09-12T17:24:02.674Z,71.36
2022-09-12T17:26:30.643Z,71.50
2022-09-12T17:28:58.609Z,71.75
2022-09-12T17:31:26.999Z,71.88
2022-09-12T17:33:58.847Z,71.80
2022-09-12T17:36:27.373Z,72.21
2022-09-12T17:38:55.402Z,71.60
2022-09-12T17:41:26.180Z,71.12
2022-09-12T17:43:57.490Z,70.90
2022-09-12T17:46:37.379Z,70.65
2022-09-12T17:49:12.421Z,70.58
2022-09-12T17:51:40.838Z,70.57
2022-09-12T17:54:13.219Z,71.22
2022-09-12T17:56:41.136Z,71.74
2022-09-12T17:59:13.577Z,72.32
2022-09-12T18:02:00.364Z,72.59
2022-09-12T18:04:28.736Z,72.26
2022-09-12T18:06:57.903Z,72.63
2022-09-12T18:09:26.414Z,72.80
2022-09-12T18:11:54.586Z,73.36
2022-09-12T18:14:23.168Z,72.87
2022-09-12T18:16:52.370Z,72.55
2022-09-12T18:19:20.538Z,72.89
2022-09-12T18:21:48.609Z,73.00
2022-09-12T18:24:16.579Z,72.27
2022-09-12T18:26:45.274Z,71.98
2022-09-12T18:29:16.936Z,72.68
2022-09-12T18:31:45.221Z,72.49
2022-09-12T18:34:17.051Z,72.62
2022-09-12T18:36:47.757Z,73.03
2022-09-12T18:39:16.673Z,72.43
2022-09-12T18:41:44.948Z,72.12
2022-09-12T18:44:13.531Z,73.09
2022-09-12T18:46:41.793Z,73.05
2022-09-12T18:49:10.184Z,72.80
2022-09-12T18:51:40.328Z,72.96
2022-09-12T18:54:12.899Z,73.54
2022-09-12T18:56:44.099Z,73.81
2022-09-12T18:59:15.473Z,73.20
2022-09-12T19:01:44.332Z,72.79
2022-09-12T19:04:13.567Z,72.67
2022-09-12T19:06:43.968Z,72.29
2022-09-12T19:09:14.162Z,72.35
2022-09-12T19:11:49.001Z,72.14
2022-09-12T19:14:19.152Z,72.19
2022-09-12T19:16:47.221Z,72.47
2022-09-12T19:19:15.294Z,72.92
2022-09-12T19:21:43.465Z,73.07
2022-09-12T19:24:11.752Z,72.74
2022-09-12T19:26:40.223Z,72.41
2022-09-12T19:29:08.292Z,72.22
2022-09-12T19:31:36.749Z,72.08
2022-09-12T19:34:07.158Z,71.86
2022-09-12T19:36:50.683Z,72.02
2022-09-12T19:39:20.017Z,72.12
2022-09-12T19:41:48.612Z,72.00
2022-09-12T19:44:19.409Z,71.91
2022-09-12T19:46:47.643Z,72.06
2022-09-12T19:49:15.793Z,71.79
2022-09-12T19:51:44.072Z,72.18
2022-09-12T19:54:12.139Z,72.21
2022-09-12T19:56:40.312Z,72.17
2022-09-12T19:59:08.898Z,72.24
2022-09-12T20:01:37.681Z,72.19
2022-09-12T20:04:06.678Z,72.55
2022-09-12T20:06:35.064Z,72.24
2022-09-12T20:09:03.322Z,73.08
2022-09-12T20:11:31.611Z,73.08
2022-09-12T20:13:59.672Z,72.57
2022-09-12T20:16:29.824Z,72.28
2022-09-12T20:19:00.578Z,72.17
2022-09-12T20:21:32.215Z,72.56
2022-09-12T20:24:07.916Z,72.55
2022-09-12T20:26:36.716Z,72.18
2022-09-12T20:29:05.509Z,72.12
2022-09-12T20:31:33.771Z,72.30
2022-09-12T20:34:02.260Z,71.88
2022-09-12T20:36:30.061Z,71.58
2022-09-12T20:39:00.296Z,71.87
2022-09-12T20:41:30.154Z,71.94
2022-09-12T20:43:58.050Z,71.92
2022-09-12T20:46:26.911Z,71.82
2022-09-12T20:48:55.296Z,71.62
2022-09-12T20:51:24.763Z,71.19
2022-09-12T20:53:54.535Z,71.04
2022-09-12T20:56:23.713Z,71.37
2022-09-12T20:58:51.683Z,71.46
2022-09-12T21:01:20.005Z,71.87
2022-09-12T21:03:48.696Z,71.83
2022-09-12T21:06:19.699Z,71.59
2022-09-12T21:08:47.945Z,71.27
2022-09-12T21:11:16.730Z,71.09
2022-09-12T21:13:44.807Z,71.02
2022-09-12T21:16:18.502Z,70.78
2022-09-12T21:18:46.728Z,70.55
2022-09-12T21:21:15.482Z,70.33
2022-09-12T21:23:43.769Z,70.71
2022-09-12T21:26:12.136Z,71.19
2022-09-12T21:28:39.973Z,71.54
2022-09-12T21:31:08.811Z,72.40
2022-09-12T21:33:37.137Z,72.20
2022-09-12T21:36:06.272Z,72.15
2022-09-12T21:38:34.413Z,72.15
2022-09-12T21:41:10.164Z,71.97
2022-09-12T21:43:38.097Z,71.59
2022-09-12T21:46:06.453Z,71.42
2022-09-12T21:48:34.587Z,71.16
2022-09-12T21:51:02.651Z,71.09
2022-09-12T21:53:31.235Z,70.79
2022-09-12T21:56:07.551Z,70.51
2022-09-12T21:58:36.486Z,70.40
2022-09-12T22:01:06.135Z,70.55
2022-09-12T22:03:34.271Z,70.42
2022-09-12T22:06:04.156Z,70.18
2022-09-12T22:08:33.277Z,69.96
2022-09-12T22:11:04.692Z,70.07
2022-09-12T22:13:32.608Z,69.82
2022-09-12T22:16:03.339Z,69.87
2022-09-12T22:18:35.900Z,70.09
2022-09-12T22:21:13.396Z,69.97
2022-09-12T22:24:00.170Z,70.18
2022-09-12T22:26:29.397Z,70.22
2022-09-12T22:28:57.263Z,70.46
2022-09-12T22:31:27.504Z,70.44
2022-09-12T22:33:57.239Z,71.32
2022-09-12T22:36:28.140Z,71.51
2022-09-12T22:38:59.689Z,71.74
2022-09-12T22:41:27.651Z,72.27
2022-09-12T22:43:56.846Z,72.17
2022-09-12T22:46:24.681Z,72.38
2022-09-12T22:48:52.679Z,72.45
2022-09-12T22:51:20.648Z,72.49
2022-09-12T22:53:48.521Z,72.68
2022-09-12T22:56:16.443Z,73.00
2022-09-12T22:58:44.347Z,73.33
2022-09-12T23:01:12.317Z,73.56
2022-09-12T23:03:40.350Z,73.57
2022-09-12T23:06:10.050Z,73.11
2022-09-12T23:08:38.955Z,72.78
2022-09-12T23:11:09.680Z,72.44
2022-09-12T23:13:38.111Z,72.42
2022-09-12T23:16:08.043Z,72.11
2022-09-12T23:18:36.591Z,72.22
2022-09-12T23:21:09.781Z,72.26
2022-09-12T23:23:38.366Z,72.63
2022-09-12T23:26:14.936Z,72.13
2022-09-12T23:28:52.871Z,71.83
2022-09-12T23:31:22.031Z,71.87
2022-09-12T23:33:53.107Z,71.59
2022-09-12T23:36:21.041Z,71.23
2022-09-12T23:38:48.973Z,71.41
2022-09-12T23:41:18.511Z,71.01
2022-09-12T23:43:47.307Z,70.61
2022-09-12T23:46:15.986Z,70.47
2022-09-12T23:48:44.056Z,70.26
2022-09-12T23:51:12.229Z,70.05
2022-09-12T23:53:40.301Z,69.73
2022-09-12T23:56:08.069Z,69.78
2022-09-12T23:58:36.028Z,70.06
